createdAt,value
2022-11-04T00:01:22.697Z,12.19
2022-11-04T00:03:50.286Z,12.15
2022-11-04T00:06:19.319Z,11.71
2022-11-04T00:08:50.258Z,11.93
2022-11-04T00:11:35.297Z,11.96
2022-11-04T00:14:03.133Z,11.86
2022-11-04T00:16:48.354Z,11.89
2022-11-04T00:19:16.274Z,12.38
2022-11-04T00:22:02.967Z,12.73
2022-11-04T00:24:48.059Z,13.19
2022-11-04T00:27:34.953Z,12.84
2022-11-04T00:30:03.224Z,12.19
2022-11-04T00:32:50.219Z,11.95
2022-11-04T00:35:18.378Z,11.81
2022-11-04T00:37:47.335Z,11.73
2022-11-04T00:40:17.033Z,12.10
2022-11-04T00:42:46.349Z,12.02
2022-11-04T00:45:14.114Z,11.94
2022-11-04T00:47:41.658Z,11.93
2022-11-04T00:50:09.997Z,12.12
2022-11-04T00:52:37.555Z,12.06
2022-11-04T00:55:07.838Z,12.11
2022-11-04T00:57:35.377Z,12.01
2022-11-04T01:00:02.927Z,11.93
2022-11-04T01:02:30.558Z,12.16
2022-11-04T01:04:58.173Z,11.95
2022-11-04T01:07:25.733Z,11.98
2022-11-04T01:09:53.277Z,11.70
2022-11-04T01:12:22.226Z,11.67
2022-11-04T01:14:50.373Z,11.98
2022-11-04T01:17:18.112Z,12.18
2022-11-04T01:19:45.642Z,12.31
2022-11-04T01:22:13.221Z,12.09
2022-11-04T01:24:40.765Z,11.93
2022-11-04T01:27:08.327Z,11.94
2022-11-04T01:29:37.267Z,12.11
2022-11-04T01:32:04.981Z,12.20
2022-11-04T01:34:32.558Z,11.91
2022-11-04T01:37:00.117Z,11.72
2022-11-04T01:39:27.885Z,11.50
2022-11-04T01:41:55.463Z,11.51
2022-11-04T01:44:51.108Z,11.63
2022-11-04T01:47:20.770Z,11.86
2022-11-04T01:49:51.594Z,11.37
2022-11-04T01:52:23.703Z,11.38
2022-11-04T01:54:54.583Z,11.20
2022-11-04T01:57:27.111Z,10.97
2022-11-04T01:59:57.769Z,11.13
2022-11-04T02:02:25.433Z,10.91
2022-11-04T02:04:53.069Z,10.83
2022-11-04T02:07:21.255Z,10.59
2022-11-04T02:09:48.845Z,10.51
2022-11-04T02:12:34.140Z,10.47
2022-11-04T02:15:03.981Z,10.37
2022-11-04T02:17:47.047Z,10.42
2022-11-04T02:20:32.856Z,10.38
2022-11-04T02:23:43.899Z,10.30
2022-11-04T02:26:56.066Z,10.35
2022-11-04T02:29:35.053Z,10.51
2022-11-04T02:32:13.438Z,10.50
2022-11-04T02:34:50.264Z,10.38
2022-11-04T02:37:31.118Z,10.52
2022-11-04T02:40:14.422Z,10.54
2022-11-04T02:42:49.170Z,10.20
2022-11-04T02:45:22.778Z,10.29
2022-11-04T02:47:55.356Z,10.29
2022-11-04T02:50:30.878Z,10.45
2022-11-04T02:53:03.266Z,10.72
2022-11-04T02:55:36.343Z,10.79
2022-11-04T02:58:09.411Z,10.55
2022-11-04T03:00:42.758Z,10.42
2022-11-04T03:03:13.507Z,10.22
2022-11-04T03:05:45.565Z,10.38
2022-11-04T03:08:16.498Z,10.35
2022-11-04T03:10:49.030Z,10.28
2022-11-04T03:13:20.224Z,10.15
2022-11-04T03:15:52.007Z,10.37
2022-11-04T03:18:25.751Z,10.22
2022-11-04T03:20:57.706Z,10.28
2022-11-04T03:23:25.804Z,10.27
2022-11-04T03:25:58.947Z,10.36
2022-11-04T03:28:38.295Z,10.36
2022-11-04T03:31:11.292Z,10.38
2022-11-04T03:33:44.746Z,10.31
2022-11-04T03:36:12.423Z,10.17
2022-11-04T03:38:40.218Z,10.19
2022-11-04T03:41:16.237Z,10.26
2022-11-04T03:43:43.877Z,10.22
2022-11-04T03:46:13.470Z,10.30
2022-11-04T03:48:41.938Z,10.26
2022-11-04T03:51:10.122Z,10.43
2022-11-04T03:53:37.832Z,10.50
2022-11-04T03:56:23.467Z,10.26
2022-11-04T03:59:07.036Z,10.26
2022-11-04T04:01:46.621Z,10.30
2022-11-04T04:04:21.400Z,10.37
2022-11-04T04:06:52.677Z,10.13
2022-11-04T04:09:24.413Z,10.31
2022-11-04T04:11:56.326Z,10.38
2022-11-04T04:14:40.572Z,10.52
2022-11-04T04:17:16.881Z,10.53
2022-11-04T04:19:49.106Z,10.90
2022-11-04T04:22:21.732Z,11.53
2022-11-04T04:25:11.242Z,11.72
2022-11-04T04:27:40.587Z,11.57
2022-11-04T04:30:10.492Z,11.86
2022-11-04T04:32:42.898Z,12.23
2022-11-04T04:35:29.410Z,12.43
2022-11-04T04:38:19.887Z,12.40
2022-11-04T04:41:12.212Z,11.89
2022-11-04T04:44:01.026Z,11.85
2022-11-04T04:46:29.293Z,11.84
2022-11-04T04:49:05.025Z,11.16
2022-11-04T04:51:33.389Z,10.73
2022-11-04T04:54:00.923Z,10.61
2022-11-04T04:56:28.445Z,10.41
2022-11-04T04:58:56.016Z,10.43
2022-11-04T05:01:23.810Z,10.21
2022-11-04T05:03:51.556Z,10.16
2022-11-04T05:06:20.506Z,10.27
2022-11-04T05:08:48.073Z,10.04
2022-11-04T05:11:15.656Z,10.43
2022-11-04T05:13:43.167Z,10.43
2022-11-04T05:16:11.940Z,10.67
2022-11-04T05:18:39.531Z,10.32
2022-11-04T05:21:08.658Z,10.18
2022-11-04T05:23:38.224Z,10.21
2022-11-04T05:26:06.500Z,10.34
2022-11-04T05:28:34.156Z,10.33
2022-11-04T05:31:04.900Z,10.84
2022-11-04T05:33:32.502Z,10.21
2022-11-04T05:36:07.647Z,10.16
2022-11-04T05:38:35.223Z,10.09
2022-11-04T05:41:04.160Z,10.29
2022-11-04T05:43:32.601Z,10.33
2022-11-04T05:46:00.455Z,10.74
2022-11-04T05:48:28.018Z,10.82
2022-11-04T05:50:56.418Z,10.39
2022-11-04T05:53:23.997Z,10.61
2022-11-04T05:55:51.590Z,10.81
2022-11-04T05:58:20.478Z,10.26
2022-11-04T06:00:48.016Z,10.55
2022-11-04T06:03:16.496Z,10.91
2022-11-04T06:05:44.243Z,10.79
2022-11-04T06:08:12.032Z,11.08
2022-11-04T06:10:39.784Z,11.37
2022-11-04T06:13:07.308Z,10.91
2022-11-04T06:15:36.210Z,10.64
2022-11-04T06:18:03.763Z,10.51
2022-11-04T06:20:31.296Z,10.78
2022-11-04T06:22:58.821Z,10.48
2022-11-04T06:25:26.333Z,10.60
2022-11-04T06:27:53.856Z,10.50
2022-11-04T06:30:21.400Z,11.28
2022-11-04T06:32:50.305Z,11.47
2022-11-04T06:35:17.910Z,11.76
2022-11-04T06:37:45.412Z,11.84
2022-11-04T06:40:13.262Z,11.39
2022-11-04T06:42:42.820Z,10.35
2022-11-04T06:45:11.796Z,10.10
2022-11-04T06:47:39.321Z,10.07
2022-11-04T06:50:09.058Z,9.92
2022-11-04T06:52:41.999Z,10.29
2022-11-04T06:55:11.198Z,10.50
2022-11-04T06:57:38.815Z,10.17
2022-11-04T07:00:07.539Z,9.86
2022-11-04T07:02:36.468Z,10.19
2022-11-04T07:05:04.787Z,10.44
2022-11-04T07:07:34.066Z,10.44
2022-11-04T07:10:01.577Z,10.30
2022-11-04T07:12:29.080Z,10.66
2022-11-04T07:14:56.627Z,11.05
2022-11-04T07:17:24.162Z,11.03
2022-11-04T07:19:51.688Z,11.24
2022-11-04T07:22:19.204Z,11.34
2022-11-04T07:24:49.390Z,11.14
2022-11-04T07:27:16.939Z,10.23
2022-11-04T07:29:44.526Z,10.47
2022-11-04T07:32:12.051Z,10.11
2022-11-04T07:34:39.564Z,10.07
2022-11-04T07:37:07.078Z,9.69
2022-11-04T07:39:34.611Z,9.56
2022-11-04T07:42:03.469Z,9.61
2022-11-04T07:44:30.994Z,9.40
2022-11-04T07:46:58.510Z,9.29
2022-11-04T07:49:26.426Z,9.55
2022-11-04T07:51:53.963Z,9.63
2022-11-04T07:54:21.485Z,9.44
2022-11-04T07:56:48.998Z,9.59
2022-11-04T07:59:17.871Z,9.53
2022-11-04T08:01:45.439Z,9.45
2022-11-04T08:04:13.070Z,9.59
2022-11-04T08:06:40.594Z,10.09
2022-11-04T08:09:08.193Z,9.68
2022-11-04T08:11:35.797Z,9.67
2022-11-04T08:14:04.991Z,10.39
2022-11-04T08:16:34.673Z,10.46
2022-11-04T08:19:02.804Z,10.75
2022-11-04T08:21:31.286Z,10.52
2022-11-04T08:23:58.803Z,10.26
2022-11-04T08:26:26.718Z,10.38
2022-11-04T08:28:54.416Z,10.34
2022-11-04T08:31:24.671Z,9.92
2022-11-04T08:33:54.216Z,10.03
2022-11-04T08:36:24.201Z,9.99
2022-11-04T08:38:52.531Z,10.16
2022-11-04T08:41:22.121Z,10.31
2022-11-04T08:43:49.721Z,10.38
2022-11-04T08:46:17.483Z,10.44
2022-11-04T08:48:45.875Z,10.81
2022-11-04T08:51:17.263Z,11.16
2022-11-04T08:53:44.943Z,10.95
2022-11-04T08:56:14.566Z,10.54
2022-11-04T08:58:42.362Z,10.45
2022-11-04T09:01:11.043Z,10.23
2022-11-04T09:03:39.531Z,10.05
2022-11-04T09:06:07.465Z,10.07
2022-11-04T09:08:37.890Z,10.28
2022-11-04T09:11:07.828Z,10.36
2022-11-04T09:13:39.378Z,10.29
2022-11-04T09:16:09.142Z,10.50
2022-11-04T09:18:36.873Z,10.43
2022-11-04T09:21:06.546Z,10.44
2022-11-04T09:23:34.078Z,10.71
2022-11-04T09:26:07.739Z,10.65
2022-11-04T09:28:35.292Z,10.58
2022-11-04T09:31:06.366Z,10.61
2022-11-04T09:33:34.192Z,10.28
2022-11-04T09:36:01.781Z,10.21
2022-11-04T09:38:29.298Z,10.30
2022-11-04T09:40:57.311Z,10.24
2022-11-04T09:43:38.880Z,9.90
2022-11-04T09:46:07.917Z,9.92
2022-11-04T09:48:40.707Z,9.86
2022-11-04T09:51:20.921Z,9.96
2022-11-04T09:54:01.117Z,9.65
2022-11-04T09:56:31.459Z,9.77
2022-11-04T09:59:00.383Z,9.97
2022-11-04T10:01:32.790Z,9.72
2022-11-04T10:04:12.786Z,10.04
2022-11-04T10:06:51.887Z,9.85
2022-11-04T10:09:33.870Z,10.00
2022-11-04T10:12:15.979Z,10.18
2022-11-04T10:15:08.422Z,10.48
2022-11-04T10:17:52.121Z,10.47
2022-11-04T10:20:41.017Z,10.14
2022-11-04T10:23:20.818Z,9.99
2022-11-04T10:25:50.579Z,9.69
2022-11-04T10:28:20.166Z,9.64
2022-11-04T10:30:52.933Z,9.60
2022-11-04T10:33:29.697Z,9.32
2022-11-04T10:36:01.881Z,9.41
2022-11-04T10:38:36.583Z,9.76
2022-11-04T10:41:17.490Z,9.82
2022-11-04T10:43:45.077Z,10.08
2022-11-04T10:46:29.911Z,10.45
2022-11-04T10:49:05.454Z,10.05
2022-11-04T10:51:32.970Z,10.05
2022-11-04T10:54:03.201Z,9.92
2022-11-04T10:56:39.425Z,10.17
2022-11-04T10:59:20.589Z,10.48
2022-11-04T11:01:54.842Z,10.25
2022-11-04T11:04:27.878Z,10.35
2022-11-04T11:06:56.846Z,10.14
2022-11-04T11:09:29.412Z,10.32
2022-11-04T11:12:00.913Z,10.36
2022-11-04T11:14:37.637Z,10.22
2022-11-04T11:17:24.423Z,10.15
2022-11-04T11:19:56.097Z,9.94
2022-11-04T11:22:35.067Z,9.89
2022-11-04T11:25:15.623Z,9.90
2022-11-04T11:27:48.674Z,9.92
2022-11-04T11:30:28.263Z,9.86
2022-11-04T11:33:08.079Z,9.81
2022-11-04T11:35:42.057Z,9.99
2022-11-04T11:38:19.930Z,10.35
2022-11-04T11:41:18.388Z,10.47
2022-11-04T11:43:41.637Z,10.28
2022-11-04T11:46:10.047Z,10.43
2022-11-04T11:48:43.319Z,10.28
2022-11-04T11:51:14.230Z,10.03
2022-11-04T11:53:59.230Z,9.88
2022-11-04T11:56:52.159Z,9.99
2022-11-04T12:02:29.552Z,10.17
2022-11-04T12:10:51.785Z,9.98
2022-11-04T12:13:28.308Z,10.24
2022-11-04T12:16:21.478Z,10.23
2022-11-04T12:19:10.761Z,10.08
2022-11-04T12:21:47.151Z,10.17
2022-11-04T12:24:27.477Z,10.08
2022-11-04T12:27:02.870Z,9.97
2022-11-04T12:29:41.974Z,10.00
2022-11-04T12:32:21.745Z,10.16
2022-11-04T12:35:02.541Z,10.26
2022-11-04T12:37:41.413Z,10.01
2022-11-04T12:40:17.721Z,9.93
2022-11-04T12:43:00.806Z,9.97
2022-11-04T12:45:40.834Z,9.94
2022-11-04T12:48:12.543Z,10.04
2022-11-04T12:50:55.736Z,10.33
2022-11-04T12:53:44.249Z,10.70
2022-11-04T12:56:13.173Z,10.93
2022-11-04T12:58:50.867Z,10.68
2022-11-04T13:01:22.921Z,10.84
2022-11-04T13:03:55.659Z,10.20
2022-11-04T13:06:28.079Z,10.38
2022-11-04T13:09:02.755Z,10.11
2022-11-04T13:11:33.722Z,10.28
2022-11-04T13:14:07.645Z,10.21
2022-11-04T13:16:41.241Z,10.50
2022-11-04T13:19:21.542Z,10.50
2022-11-04T13:21:49.979Z,10.65
2022-11-04T13:24:30.176Z,10.71
2022-11-04T13:27:01.635Z,10.85
2022-11-04T13:29:32.526Z,10.61
2022-11-04T13:32:06.585Z,10.60
2022-11-04T13:34:40.913Z,10.64
2022-11-04T13:37:18.218Z,10.80
2022-11-04T13:39:52.573Z,11.01
2022-11-04T13:42:34.114Z,10.80
2022-11-04T13:45:11.077Z,11.23
2022-11-04T13:47:48.484Z,11.80
2022-11-04T13:50:36.520Z,12.22
2022-11-04T13:53:05.189Z,11.96
2022-11-04T13:55:35.444Z,12.46
2022-11-04T13:58:05.975Z,12.42
2022-11-04T14:00:34.319Z,12.06
2022-11-04T14:03:22.350Z,12.21
2022-11-04T14:06:05.270Z,11.12
2022-11-04T14:08:33.369Z,11.23
2022-11-04T14:11:12.951Z,11.33
2022-11-04T14:14:02.335Z,11.20
2022-11-04T14:16:41.572Z,11.19
2022-11-04T14:19:57.225Z,11.14
2022-11-04T14:22:38.765Z,11.61
2022-11-04T14:25:25.817Z,11.13
2022-11-04T14:27:55.542Z,10.97
2022-11-04T14:30:33.781Z,10.90
2022-11-04T14:33:04.553Z,10.86
2022-11-04T14:35:33.041Z,11.00
2022-11-04T14:38:07.335Z,11.02
2022-11-04T14:40:52.147Z,10.97
2022-11-04T14:43:31.033Z,11.43
2022-11-04T14:46:00.808Z,11.20
2022-11-04T14:48:29.662Z,11.43
2022-11-04T14:50:58.164Z,11.83
2022-11-04T14:53:32.800Z,11.79
2022-11-04T14:56:15.000Z,11.32
2022-11-04T14:58:56.068Z,11.43
2022-11-04T15:01:26.532Z,11.83
2022-11-04T15:04:13.349Z,11.77
2022-11-04T15:06:54.387Z,11.98
2022-11-04T15:09:26.273Z,11.84
2022-11-04T15:12:20.477Z,11.81
2022-11-04T15:14:48.340Z,11.96
2022-11-04T15:17:20.714Z,11.84
2022-11-04T15:19:51.539Z,11.56
2022-11-04T15:22:19.982Z,11.71
2022-11-04T15:24:50.545Z,11.79
2022-11-04T15:27:20.653Z,11.93
2022-11-04T15:29:54.853Z,11.88
2022-11-04T15:32:22.635Z,11.51
2022-11-04T15:34:50.757Z,11.67
2022-11-04T15:37:18.538Z,11.92
2022-11-04T15:39:48.495Z,11.43
2022-11-04T15:42:42.900Z,11.54
2022-11-04T15:45:29.018Z,11.86
2022-11-04T15:48:31.214Z,11.38
2022-11-04T15:51:11.386Z,11.25
2022-11-04T15:53:49.724Z,11.16
2022-11-04T15:56:18.686Z,11.44
2022-11-04T15:58:48.155Z,11.60
2022-11-04T16:01:17.105Z,11.48
2022-11-04T16:03:51.079Z,11.31
2022-11-04T16:06:19.016Z,11.28
2022-11-04T16:09:01.507Z,11.04
2022-11-04T16:11:29.201Z,11.08
2022-11-04T16:14:15.455Z,11.54
2022-11-04T16:16:48.536Z,11.16
2022-11-04T16:19:23.247Z,10.62
2022-11-04T16:21:59.890Z,10.83
2022-11-04T16:24:30.608Z,10.44
2022-11-04T16:26:58.400Z,10.55
2022-11-04T16:29:30.186Z,10.47
2022-11-04T16:32:18.067Z,10.39
2022-11-04T16:34:46.092Z,11.19
2022-11-04T16:37:13.710Z,11.08
2022-11-04T16:39:41.650Z,11.19
2022-11-04T16:42:12.434Z,10.79
2022-11-04T16:44:41.563Z,11.12
2022-11-04T16:47:11.482Z,10.87
2022-11-04T16:49:39.011Z,11.68
2022-11-04T16:52:14.119Z,12.08
2022-11-04T16:54:42.115Z,12.28
2022-11-04T16:57:13.839Z,12.28
2022-11-04T16:59:43.316Z,12.32
2022-11-04T17:02:24.255Z,12.73
2022-11-04T17:04:51.926Z,12.83
2022-11-04T17:07:19.508Z,12.87
2022-11-04T17:09:47.147Z,12.93
2022-11-04T17:12:14.689Z,12.91
2022-11-04T17:14:43.641Z,12.89
2022-11-04T17:17:12.011Z,12.88
2022-11-04T17:19:39.608Z,12.89
2022-11-04T17:22:08.927Z,12.81
2022-11-04T17:24:37.421Z,12.76
2022-11-04T17:27:06.396Z,12.72
2022-11-04T17:29:33.940Z,12.72
2022-11-04T17:32:02.892Z,12.68
2022-11-04T17:34:30.468Z,12.65
2022-11-04T17:36:57.982Z,12.59
2022-11-04T17:39:25.505Z,12.47
2022-11-04T17:42:10.817Z,12.52
2022-11-04T17:44:38.351Z,12.51
2022-11-04T17:47:07.203Z,12.53
2022-11-04T17:49:37.601Z,12.55
2022-11-04T17:52:05.356Z,12.52
2022-11-04T17:54:33.134Z,12.43
2022-11-04T17:57:00.898Z,12.45
2022-11-04T17:59:33.841Z,12.44
2022-11-04T18:02:04.057Z,12.38
2022-11-04T18:04:33.143Z,12.37
2022-11-04T18:07:02.985Z,12.36
2022-11-04T18:09:31.030Z,12.28
2022-11-04T18:12:16.522Z,12.18
2022-11-04T18:14:44.078Z,12.19
2022-11-04T18:17:11.705Z,12.21
2022-11-04T18:19:40.943Z,12.25
2022-11-04T18:22:08.489Z,11.84
2022-11-04T18:24:36.273Z,11.44
2022-11-04T18:27:03.890Z,11.05
2022-11-04T18:29:31.637Z,11.28
2022-11-04T18:31:59.164Z,11.00
2022-11-04T18:34:26.666Z,10.58
2022-11-04T18:36:56.763Z,10.24
2022-11-04T18:39:24.481Z,10.00
2022-11-04T18:41:52.062Z,10.10
2022-11-04T18:44:21.362Z,9.97
2022-11-04T18:46:49.690Z,9.88
2022-11-04T18:49:18.133Z,9.41
2022-11-04T18:51:45.786Z,9.25
2022-11-04T18:54:15.683Z,8.97
2022-11-04T18:56:43.795Z,9.03
2022-11-04T18:59:11.700Z,9.29
2022-11-04T19:01:39.617Z,9.64
2022-11-04T19:04:07.382Z,10.07
2022-11-04T19:06:36.474Z,10.62
2022-11-04T19:09:25.208Z,10.74
2022-11-04T19:12:10.080Z,10.81
2022-11-04T19:14:38.458Z,10.86
2022-11-04T19:17:06.013Z,10.86
2022-11-04T19:19:33.528Z,10.96
2022-11-04T19:22:01.091Z,11.21
2022-11-04T19:24:29.030Z,11.42
2022-11-04T19:26:57.905Z,11.42
2022-11-04T19:29:25.933Z,11.66
2022-11-04T19:31:53.443Z,11.65
2022-11-04T19:34:21.089Z,11.67
2022-11-04T19:36:48.891Z,11.68
2022-11-04T19:39:16.506Z,11.65
2022-11-04T19:42:01.473Z,11.49
2022-11-04T19:44:32.372Z,11.14
2022-11-04T19:47:00.038Z,11.17
2022-11-04T19:49:31.085Z,11.32
2022-11-04T19:51:58.805Z,11.34
2022-11-04T19:54:26.665Z,11.33
2022-11-04T19:56:54.236Z,11.24
2022-11-04T19:59:21.817Z,11.02
2022-11-04T20:01:50.824Z,10.61
2022-11-04T20:04:18.813Z,10.82
2022-11-04T20:06:46.357Z,11.00
2022-11-04T20:09:14.088Z,10.78
2022-11-04T20:11:56.289Z,10.74
2022-11-04T20:14:23.846Z,10.59
2022-11-04T20:16:52.779Z,10.43
2022-11-04T20:19:22.954Z,10.38
2022-11-04T20:21:51.700Z,10.22
2022-11-04T20:24:19.267Z,10.28
2022-11-04T20:26:47.597Z,9.63
2022-11-04T20:29:16.531Z,9.22
2022-11-04T20:31:45.482Z,8.87
2022-11-04T20:34:15.092Z,8.63
2022-11-04T20:36:42.985Z,8.59
2022-11-04T20:39:14.489Z,8.50
2022-11-04T20:41:42.275Z,8.76
2022-11-04T20:44:11.124Z,9.10
2022-11-04T20:46:38.762Z,9.22
2022-11-04T20:49:06.342Z,8.74
2022-11-04T20:51:37.451Z,8.69
2022-11-04T20:54:07.108Z,8.67
2022-11-04T20:56:36.814Z,8.66
2022-11-04T20:59:05.969Z,8.82
2022-11-04T21:01:35.742Z,8.77
2022-11-04T21:04:06.299Z,8.89
2022-11-04T21:06:38.100Z,9.04
2022-11-04T21:09:06.689Z,9.04
2022-11-04T21:11:35.118Z,8.80
2022-11-04T21:14:02.714Z,8.77
2022-11-04T21:16:31.167Z,8.92
2022-11-04T21:18:59.616Z,8.98
2022-11-04T21:21:28.229Z,9.21
2022-11-04T21:24:01.230Z,9.10
2022-11-04T21:26:31.265Z,9.26
2022-11-04T21:29:01.329Z,9.46
2022-11-04T21:31:30.540Z,9.65
2022-11-04T21:33:59.229Z,9.96
2022-11-04T21:36:26.847Z,10.13
2022-11-04T21:38:54.434Z,10.42
2022-11-04T21:41:25.899Z,10.23
2022-11-04T21:43:56.647Z,10.22
2022-11-04T21:46:24.756Z,9.99
2022-11-04T21:48:52.299Z,10.05
2022-11-04T21:51:21.877Z,9.95
2022-11-04T21:53:49.864Z,9.76
2022-11-04T21:56:19.454Z,9.92
2022-11-04T21:58:48.671Z,10.00
2022-11-04T22:01:18.635Z,9.46
2022-11-04T22:03:50.835Z,9.17
2022-11-04T22:06:18.752Z,9.60
2022-11-04T22:08:49.424Z,9.63
2022-11-04T22:11:19.834Z,9.09
2022-11-04T22:13:48.798Z,9.08
2022-11-04T22:16:19.285Z,8.97
2022-11-04T22:18:47.631Z,8.67
2022-11-04T22:21:17.905Z,8.47
2022-11-04T22:23:46.252Z,8.11
2022-11-04T22:26:16.567Z,7.93
2022-11-04T22:28:44.103Z,7.79
2022-11-04T22:31:16.016Z,7.67
2022-11-04T22:33:43.849Z,7.85
2022-11-04T22:36:12.354Z,7.85
2022-11-04T22:38:41.623Z,7.81
2022-11-04T22:41:11.592Z,7.82
2022-11-04T22:43:39.615Z,7.90
2022-11-04T22:46:09.336Z,7.90
2022-11-04T22:48:38.667Z,7.97
2022-11-04T22:51:06.838Z,7.70
2022-11-04T22:53:34.375Z,7.63
2022-11-04T22:56:02.969Z,7.70
2022-11-04T22:58:30.905Z,7.60
2022-11-04T23:01:00.273Z,7.55
2022-11-04T23:03:28.289Z,7.56
2022-11-04T23:05:59.079Z,7.57
2022-11-04T23:08:28.003Z,7.48
2022-11-04T23:11:15.848Z,7.50
2022-11-04T23:14:08.231Z,7.53
2022-11-04T23:16:53.229Z,7.58
2022-11-04T23:19:20.780Z,7.67
2022-11-04T23:22:07.049Z,7.86
2022-11-04T23:24:52.299Z,7.96
2022-11-04T23:27:34.228Z,7.82
2022-11-04T23:30:19.325Z,7.78
2022-11-04T23:32:46.861Z,8.02
2022-11-04T23:35:32.264Z,7.96
2022-11-04T23:38:01.411Z,8.05
2022-11-04T23:40:31.094Z,8.00
2022-11-04T23:42:57.883Z,7.82
2022-11-04T23:45:42.931Z,7.73
2022-11-04T23:48:28.930Z,7.79
2022-11-04T23:51:15.393Z,7.77
2022-11-04T23:54:02.061Z,7.82
2022-11-04T23:56:47.601Z,7.91
2022-11-04T23:59:34.839Z,7.89
